Авиационная погода в Волгограде

Регион: 
Погода METAR: 
URWW 050800Z 07003MPS 360V110 CAVOK 28/11 Q1017 R06/010070 NOSIG
Время наблюдения
2021-08-05T08:00:00Z
Температура C
28.0
Точка росы
11.0
Направление ветра
70
Скорость ветра (узлы)
6
Метео видимость
6.21
Явления погоды
Условия полета
VFR
Аэропорт подробнее: